sensor_id;sensor_type;location;lat;lon;timestamp;temperature;humidity
8103;DHT22;4094;49.948;11.574;2023-08-20T00:02:02;26.60;72.30
8103;DHT22;4094;49.948;11.574;2023-08-20T00:04:36;26.60;72.40
8103;DHT22;4094;49.948;11.574;2023-08-20T00:07:06;26.60;72.40
8103;DHT22;4094;49.948;11.574;2023-08-20T00:09:35;26.60;72.50
8103;DHT22;4094;49.948;11.574;2023-08-20T00:12:05;26.60;72.40
8103;DHT22;4094;49.948;11.574;2023-08-20T00:14:55;26.50;72.40
8103;DHT22;4094;49.948;11.574;2023-08-20T00:17:26;26.50;72.30
8103;DHT22;4094;49.948;11.574;2023-08-20T00:19:57;26.50;72.30
8103;DHT22;4094;49.948;11.574;2023-08-20T00:22:27;26.50;72.60
8103;DHT22;4094;49.948;11.574;2023-08-20T00:24:58;26.50;72.60
8103;DHT22;4094;49.948;11.574;2023-08-20T00:27:27;26.40;72.80
8103;DHT22;4094;49.948;11.574;2023-08-20T00:29:56;26.40;73.00
8103;DHT22;4094;49.948;11.574;2023-08-20T00:32:25;26.40;73.30
8103;DHT22;4094;49.948;11.574;2023-08-20T00:34:56;26.40;73.70
8103;DHT22;4094;49.948;11.574;2023-08-20T00:37:25;26.40;73.70
8103;DHT22;4094;49.948;11.574;2023-08-20T00:39:54;26.40;73.70
8103;DHT22;4094;49.948;11.574;2023-08-20T00:42:25;26.40;73.90
8103;DHT22;4094;49.948;11.574;2023-08-20T00:44:54;26.40;73.90
8103;DHT22;4094;49.948;11.574;2023-08-20T00:47:23;26.40;73.70
8103;DHT22;4094;49.948;11.574;2023-08-20T00:49:52;26.40;73.70
8103;DHT22;4094;49.948;11.574;2023-08-20T00:52:23;26.40;73.90
8103;DHT22;4094;49.948;11.574;2023-08-20T00:54:54;26.40;73.90
8103;DHT22;4094;49.948;11.574;2023-08-20T00:57:23;26.40;73.70
8103;DHT22;4094;49.948;11.574;2023-08-20T00:59:55;26.40;73.40
8103;DHT22;4094;49.948;11.574;2023-08-20T01:02:24;26.30;73.70
8103;DHT22;4094;49.948;11.574;2023-08-20T01:04:54;26.40;73.10
8103;DHT22;4094;49.948;11.574;2023-08-20T01:07:30;26.40;72.80
8103;DHT22;4094;49.948;11.574;2023-08-20T01:10:08;26.30;72.80
8103;DHT22;4094;49.948;11.574;2023-08-20T01:12:39;26.30;72.90
8103;DHT22;4094;49.948;11.574;2023-08-20T01:15:10;26.30;73.10
8103;DHT22;4094;49.948;11.574;2023-08-20T01:17:44;26.30;73.40
8103;DHT22;4094;49.948;11.574;2023-08-20T01:20:15;26.30;73.60
8103;DHT22;4094;49.948;11.574;2023-08-20T01:23:02;26.30;74.10
8103;DHT22;4094;49.948;11.574;2023-08-20T01:25:49;26.30;74.60
8103;DHT22;4094;49.948;11.574;2023-08-20T01:28:25;26.30;74.70
8103;DHT22;4094;49.948;11.574;2023-08-20T01:30:56;26.30;74.60
8103;DHT22;4094;49.948;11.574;2023-08-20T01:33:26;26.30;74.80
8103;DHT22;4094;49.948;11.574;2023-08-20T01:35:55;26.20;74.70
8103;DHT22;4094;49.948;11.574;2023-08-20T01:38:25;26.20;75.10
8103;DHT22;4094;49.948;11.574;2023-08-20T01:40:54;26.20;75.40
8103;DHT22;4094;49.948;11.574;2023-08-20T01:43:25;26.20;75.30
8103;DHT22;4094;49.948;11.574;2023-08-20T01:45:55;26.20;75.30
8103;DHT22;4094;49.948;11.574;2023-08-20T01:48:24;26.20;75.60
8103;DHT22;4094;49.948;11.574;2023-08-20T01:50:53;26.10;75.50
8103;DHT22;4094;49.948;11.574;2023-08-20T01:53:22;26.10;75.50
8103;DHT22;4094;49.948;11.574;2023-08-20T01:55:51;26.10;75.60
8103;DHT22;4094;49.948;11.574;2023-08-20T01:58:21;26.10;75.60
8103;DHT22;4094;49.948;11.574;2023-08-20T02:00:51;26.10;75.80
8103;DHT22;4094;49.948;11.574;2023-08-20T02:03:20;26.10;75.80
8103;DHT22;4094;49.948;11.574;2023-08-20T02:05:50;26.10;75.70
8103;DHT22;4094;49.948;11.574;2023-08-20T02:08:19;26.10;75.80
8103;DHT22;4094;49.948;11.574;2023-08-20T02:10:48;26.10;75.90
8103;DHT22;4094;49.948;11.574;2023-08-20T02:13:17;26.10;76.00
8103;DHT22;4094;49.948;11.574;2023-08-20T02:15:47;26.10;75.90
8103;DHT22;4094;49.948;11.574;2023-08-20T02:18:29;26.10;76.00
8103;DHT22;4094;49.948;11.574;2023-08-20T02:20:58;26.10;76.10
8103;DHT22;4094;49.948;11.574;2023-08-20T02:23:27;26.10;75.80
8103;DHT22;4094;49.948;11.574;2023-08-20T02:25:56;26.00;75.20
8103;DHT22;4094;49.948;11.574;2023-08-20T02:28:25;26.00;75.00
8103;DHT22;4094;49.948;11.574;2023-08-20T02:30:55;26.10;75.30
8103;DHT22;4094;49.948;11.574;2023-08-20T02:33:25;26.00;74.70
8103;DHT22;4094;49.948;11.574;2023-08-20T02:36:01;26.00;74.90
8103;DHT22;4094;49.948;11.574;2023-08-20T02:38:30;26.00;75.10
8103;DHT22;4094;49.948;11.574;2023-08-20T02:41:00;26.00;75.00
8103;DHT22;4094;49.948;11.574;2023-08-20T02:43:30;26.00;75.20
8103;DHT22;4094;49.948;11.574;2023-08-20T02:46:02;25.90;75.20
8103;DHT22;4094;49.948;11.574;2023-08-20T02:48:31;25.90;75.30
8103;DHT22;4094;49.948;11.574;2023-08-20T02:51:02;25.90;75.40
8103;DHT22;4094;49.948;11.574;2023-08-20T02:53:31;25.80;75.40
8103;DHT22;4094;49.948;11.574;2023-08-20T02:56:00;25.80;75.40
8103;DHT22;4094;49.948;11.574;2023-08-20T02:58:31;25.80;75.50
8103;DHT22;4094;49.948;11.574;2023-08-20T03:01:00;25.80;75.50
8103;DHT22;4094;49.948;11.574;2023-08-20T03:03:30;25.80;75.70
8103;DHT22;4094;49.948;11.574;2023-08-20T03:05:59;25.80;75.80
8103;DHT22;4094;49.948;11.574;2023-08-20T03:08:30;25.70;75.90
8103;DHT22;4094;49.948;11.574;2023-08-20T03:10:59;25.70;75.90
8103;DHT22;4094;49.948;11.574;2023-08-20T03:13:28;25.70;76.00
8103;DHT22;4094;49.948;11.574;2023-08-20T03:15:58;25.70;76.10
8103;DHT22;4094;49.948;11.574;2023-08-20T03:18:27;25.60;76.00
8103;DHT22;4094;49.948;11.574;2023-08-20T03:20:56;25.60;75.90
8103;DHT22;4094;49.948;11.574;2023-08-20T03:23:25;25.70;75.90
8103;DHT22;4094;49.948;11.574;2023-08-20T03:25:58;25.60;75.80
8103;DHT22;4094;49.948;11.574;2023-08-20T03:28:28;25.60;76.00
8103;DHT22;4094;49.948;11.574;2023-08-20T03:30:59;25.60;75.80
8103;DHT22;4094;49.948;11.574;2023-08-20T03:33:34;25.60;76.00
8103;DHT22;4094;49.948;11.574;2023-08-20T03:36:04;25.60;76.00
8103;DHT22;4094;49.948;11.574;2023-08-20T03:38:33;25.50;76.50
8103;DHT22;4094;49.948;11.574;2023-08-20T03:41:04;25.50;75.70
8103;DHT22;4094;49.948;11.574;2023-08-20T03:43:33;25.50;75.70
8103;DHT22;4094;49.948;11.574;2023-08-20T03:46:02;25.40;75.70
8103;DHT22;4094;49.948;11.574;2023-08-20T03:48:32;25.50;75.90
8103;DHT22;4094;49.948;11.574;2023-08-20T03:51:01;25.40;75.70
8103;DHT22;4094;49.948;11.574;2023-08-20T03:53:32;25.40;75.80
8103;DHT22;4094;49.948;11.574;2023-08-20T03:56:01;25.40;75.80
8103;DHT22;4094;49.948;11.574;2023-08-20T03:58:31;25.40;75.80
8103;DHT22;4094;49.948;11.574;2023-08-20T04:01:02;25.30;75.70
8103;DHT22;4094;49.948;11.574;2023-08-20T04:03:32;25.30;75.80
8103;DHT22;4094;49.948;11.574;2023-08-20T04:06:34;25.30;75.80
8103;DHT22;4094;49.948;11.574;2023-08-20T04:09:03;25.30;75.80
8103;DHT22;4094;49.948;11.574;2023-08-20T04:11:33;25.30;75.80
8103;DHT22;4094;49.948;11.574;2023-08-20T04:14:05;25.30;75.70
8103;DHT22;4094;49.948;11.574;2023-08-20T04:16:34;25.20;75.80
8103;DHT22;4094;49.948;11.574;2023-08-20T04:19:03;25.30;75.90
8103;DHT22;4094;49.948;11.574;2023-08-20T04:21:32;25.30;76.00
8103;DHT22;4094;49.948;11.574;2023-08-20T04:24:01;25.20;76.00
8103;DHT22;4094;49.948;11.574;2023-08-20T04:26:30;25.20;76.00
8103;DHT22;4094;49.948;11.574;2023-08-20T04:29:00;25.20;76.10
8103;DHT22;4094;49.948;11.574;2023-08-20T04:31:30;25.20;76.10
8103;DHT22;4094;49.948;11.574;2023-08-20T04:34:05;25.20;76.10
8103;DHT22;4094;49.948;11.574;2023-08-20T04:36:45;25.10;76.20
8103;DHT22;4094;49.948;11.574;2023-08-20T04:39:14;25.10;76.20
8103;DHT22;4094;49.948;11.574;2023-08-20T04:41:48;25.10;76.30
8103;DHT22;4094;49.948;11.574;2023-08-20T04:44:19;25.10;76.30
8103;DHT22;4094;49.948;11.574;2023-08-20T04:46:51;25.10;76.30
8103;DHT22;4094;49.948;11.574;2023-08-20T04:49:20;25.00;76.30
8103;DHT22;4094;49.948;11.574;2023-08-20T04:51:49;25.00;76.40
8103;DHT22;4094;49.948;11.574;2023-08-20T04:54:18;25.00;76.70
8103;DHT22;4094;49.948;11.574;2023-08-20T04:56:47;25.00;76.70
8103;DHT22;4094;49.948;11.574;2023-08-20T04:59:16;25.00;76.80
8103;DHT22;4094;49.948;11.574;2023-08-20T05:02:07;25.00;76.70
8103;DHT22;4094;49.948;11.574;2023-08-20T05:04:48;25.00;76.70
8103;DHT22;4094;49.948;11.574;2023-08-20T05:07:18;25.00;76.40
8103;DHT22;4094;49.948;11.574;2023-08-20T05:09:49;25.00;76.40
8103;DHT22;4094;49.948;11.574;2023-08-20T05:12:19;25.00;76.60
8103;DHT22;4094;49.948;11.574;2023-08-20T05:14:48;25.00;76.70
8103;DHT22;4094;49.948;11.574;2023-08-20T05:17:19;25.00;76.90
8103;DHT22;4094;49.948;11.574;2023-08-20T05:19:48;25.00;77.10
8103;DHT22;4094;49.948;11.574;2023-08-20T05:22:17;25.00;77.20
8103;DHT22;4094;49.948;11.574;2023-08-20T05:24:47;25.00;77.40
8103;DHT22;4094;49.948;11.574;2023-08-20T05:27:17;25.00;77.30
8103;DHT22;4094;49.948;11.574;2023-08-20T05:29:50;25.00;77.30
8103;DHT22;4094;49.948;11.574;2023-08-20T05:32:22;25.10;77.20
8103;DHT22;4094;49.948;11.574;2023-08-20T05:34:51;25.10;77.20
8103;DHT22;4094;49.948;11.574;2023-08-20T05:37:20;25.20;77.10
8103;DHT22;4094;49.948;11.574;2023-08-20T05:39:49;25.20;76.70
8103;DHT22;4094;49.948;11.574;2023-08-20T05:42:18;25.30;76.50
8103;DHT22;4094;49.948;11.574;2023-08-20T05:44:54;25.30;76.00
8103;DHT22;4094;49.948;11.574;2023-08-20T05:47:28;25.40;76.40
8103;DHT22;4094;49.948;11.574;2023-08-20T05:49:58;25.40;76.30
8103;DHT22;4094;49.948;11.574;2023-08-20T05:52:27;25.40;76.00
8103;DHT22;4094;49.948;11.574;2023-08-20T05:54:56;25.50;76.20
8103;DHT22;4094;49.948;11.574;2023-08-20T05:57:26;25.60;76.30
8103;DHT22;4094;49.948;11.574;2023-08-20T05:59:55;25.60;76.10
8103;DHT22;4094;49.948;11.574;2023-08-20T06:02:24;25.70;76.20
8103;DHT22;4094;49.948;11.574;2023-08-20T06:04:56;25.70;76.00
8103;DHT22;4094;49.948;11.574;2023-08-20T06:07:25;25.80;75.90
8103;DHT22;4094;49.948;11.574;2023-08-20T06:09:54;25.80;75.70
8103;DHT22;4094;49.948;11.574;2023-08-20T06:12:24;25.90;75.60
8103;DHT22;4094;49.948;11.574;2023-08-20T06:14:53;25.90;75.00
8103;DHT22;4094;49.948;11.574;2023-08-20T06:17:23;26.00;75.10
8103;DHT22;4094;49.948;11.574;2023-08-20T06:19:52;26.00;74.90
8103;DHT22;4094;49.948;11.574;2023-08-20T06:22:23;26.10;75.60
8103;DHT22;4094;49.948;11.574;2023-08-20T06:24:52;26.20;75.40
8103;DHT22;4094;49.948;11.574;2023-08-20T06:27:21;26.20;75.20
8103;DHT22;4094;49.948;11.574;2023-08-20T06:29:50;26.30;75.00
8103;DHT22;4094;49.948;11.574;2023-08-20T06:32:19;26.40;74.90
8103;DHT22;4094;49.948;11.574;2023-08-20T06:34:48;26.40;74.60
8103;DHT22;4094;49.948;11.574;2023-08-20T06:37:17;26.50;74.10
8103;DHT22;4094;49.948;11.574;2023-08-20T06:39:48;26.60;73.30
8103;DHT22;4094;49.948;11.574;2023-08-20T06:42:17;26.60;72.80
8103;DHT22;4094;49.948;11.574;2023-08-20T06:44:46;26.70;73.40
8103;DHT22;4094;49.948;11.574;2023-08-20T06:47:15;26.70;73.50
8103;DHT22;4094;49.948;11.574;2023-08-20T06:49:44;26.70;73.40
8103;DHT22;4094;49.948;11.574;2023-08-20T06:52:13;26.80;73.40
8103;DHT22;4094;49.948;11.574;2023-08-20T06:54:42;26.90;72.70
8103;DHT22;4094;49.948;11.574;2023-08-20T06:57:12;27.00;72.60
8103;DHT22;4094;49.948;11.574;2023-08-20T06:59:41;27.00;72.40
8103;DHT22;4094;49.948;11.574;2023-08-20T07:02:11;27.10;72.70
8103;DHT22;4094;49.948;11.574;2023-08-20T07:04:41;27.20;72.20
8103;DHT22;4094;49.948;11.574;2023-08-20T07:07:11;27.30;71.90
8103;DHT22;4094;49.948;11.574;2023-08-20T07:09:41;27.30;71.80
8103;DHT22;4094;49.948;11.574;2023-08-20T07:12:11;27.40;72.30
8103;DHT22;4094;49.948;11.574;2023-08-20T07:14:41;27.50;72.10
8103;DHT22;4094;49.948;11.574;2023-08-20T07:17:10;27.60;71.80
8103;DHT22;4094;49.948;11.574;2023-08-20T07:19:39;27.70;70.40
8103;DHT22;4094;49.948;11.574;2023-08-20T07:22:08;27.70;70.10
8103;DHT22;4094;49.948;11.574;2023-08-20T07:24:37;27.80;70.00
8103;DHT22;4094;49.948;11.574;2023-08-20T07:27:06;27.80;70.00
8103;DHT22;4094;49.948;11.574;2023-08-20T07:29:41;27.90;70.20
8103;DHT22;4094;49.948;11.574;2023-08-20T07:32:10;28.00;70.00
8103;DHT22;4094;49.948;11.574;2023-08-20T07:34:39;28.00;70.40
8103;DHT22;4094;49.948;11.574;2023-08-20T07:37:08;28.10;69.50
8103;DHT22;4094;49.948;11.574;2023-08-20T07:39:38;28.20;69.70
8103;DHT22;4094;49.948;11.574;2023-08-20T07:42:08;28.30;69.70
8103;DHT22;4094;49.948;11.574;2023-08-20T07:44:37;28.40;69.80
8103;DHT22;4094;49.948;11.574;2023-08-20T07:47:08;28.50;69.20
8103;DHT22;4094;49.948;11.574;2023-08-20T07:49:37;28.60;68.60
8103;DHT22;4094;49.948;11.574;2023-08-20T07:52:06;28.70;67.90
8103;DHT22;4094;49.948;11.574;2023-08-20T07:54:35;28.70;67.60
8103;DHT22;4094;49.948;11.574;2023-08-20T07:57:04;28.90;67.90
8103;DHT22;4094;49.948;11.574;2023-08-20T07:59:33;29.00;67.20
8103;DHT22;4094;49.948;11.574;2023-08-20T08:02:02;29.10;67.00
8103;DHT22;4094;49.948;11.574;2023-08-20T08:04:33;29.20;67.40
8103;DHT22;4094;49.948;11.574;2023-08-20T08:07:03;29.30;65.80
8103;DHT22;4094;49.948;11.574;2023-08-20T08:09:32;29.40;65.50
8103;DHT22;4094;49.948;11.574;2023-08-20T08:12:02;29.50;65.20
8103;DHT22;4094;49.948;11.574;2023-08-20T08:14:31;29.50;65.20
8103;DHT22;4094;49.948;11.574;2023-08-20T08:17:00;29.60;65.70
8103;DHT22;4094;49.948;11.574;2023-08-20T08:19:29;29.70;64.80
8103;DHT22;4094;49.948;11.574;2023-08-20T08:22:00;29.90;65.40
8103;DHT22;4094;49.948;11.574;2023-08-20T08:24:29;29.90;65.20
8103;DHT22;4094;49.948;11.574;2023-08-20T08:26:58;30.00;64.70
8103;DHT22;4094;49.948;11.574;2023-08-20T08:29:27;30.10;64.60
8103;DHT22;4094;49.948;11.574;2023-08-20T08:31:56;30.20;64.20
8103;DHT22;4094;49.948;11.574;2023-08-20T08:34:25;30.30;64.40
8103;DHT22;4094;49.948;11.574;2023-08-20T08:36:54;30.30;63.50
8103;DHT22;4094;49.948;11.574;2023-08-20T08:39:25;30.40;64.20
8103;DHT22;4094;49.948;11.574;2023-08-20T08:41:58;30.50;63.30
8103;DHT22;4094;49.948;11.574;2023-08-20T08:44:31;30.50;63.10
8103;DHT22;4094;49.948;11.574;2023-08-20T08:47:01;30.60;63.20
8103;DHT22;4094;49.948;11.574;2023-08-20T08:49:33;30.70;62.70
8103;DHT22;4094;49.948;11.574;2023-08-20T08:52:06;30.80;62.90
8103;DHT22;4094;49.948;11.574;2023-08-20T08:54:44;30.80;62.80
8103;DHT22;4094;49.948;11.574;2023-08-20T08:57:25;30.90;61.00
8103;DHT22;4094;49.948;11.574;2023-08-20T08:59:54;31.00;60.90
8103;DHT22;4094;49.948;11.574;2023-08-20T09:02:24;31.00;59.40
8103;DHT22;4094;49.948;11.574;2023-08-20T09:04:56;31.10;59.60
8103;DHT22;4094;49.948;11.574;2023-08-20T09:07:29;31.10;58.70
8103;DHT22;4094;49.948;11.574;2023-08-20T09:10:05;31.20;57.90
8103;DHT22;4094;49.948;11.574;2023-08-20T09:12:35;31.20;57.70
8103;DHT22;4094;49.948;11.574;2023-08-20T09:15:10;31.20;57.50
8103;DHT22;4094;49.948;11.574;2023-08-20T09:17:46;31.20;56.90
8103;DHT22;4094;49.948;11.574;2023-08-20T09:20:15;31.30;57.40
8103;DHT22;4094;49.948;11.574;2023-08-20T09:22:52;31.20;57.50
8103;DHT22;4094;49.948;11.574;2023-08-20T09:25:27;31.30;57.20
8103;DHT22;4094;49.948;11.574;2023-08-20T09:28:02;31.40;56.80
8103;DHT22;4094;49.948;11.574;2023-08-20T09:30:31;31.40;55.60
8103;DHT22;4094;49.948;11.574;2023-08-20T09:33:05;31.40;56.10
8103;DHT22;4094;49.948;11.574;2023-08-20T09:35:34;31.50;55.60
8103;DHT22;4094;49.948;11.574;2023-08-20T09:38:04;31.50;56.00
8103;DHT22;4094;49.948;11.574;2023-08-20T09:40:34;31.60;56.40
8103;DHT22;4094;49.948;11.574;2023-08-20T09:43:07;31.50;56.10
8103;DHT22;4094;49.948;11.574;2023-08-20T09:45:38;31.60;56.50
8103;DHT22;4094;49.948;11.574;2023-08-20T09:48:09;31.70;55.90
8103;DHT22;4094;49.948;11.574;2023-08-20T09:50:40;31.80;56.20
8103;DHT22;4094;49.948;11.574;2023-08-20T09:53:12;31.80;55.90
8103;DHT22;4094;49.948;11.574;2023-08-20T09:55:47;31.90;56.00
8103;DHT22;4094;49.948;11.574;2023-08-20T09:58:17;32.00;55.90
8103;DHT22;4094;49.948;11.574;2023-08-20T10:00:50;32.00;54.40
8103;DHT22;4094;49.948;11.574;2023-08-20T10:03:20;32.10;54.60
8103;DHT22;4094;49.948;11.574;2023-08-20T10:05:51;32.20;55.10
8103;DHT22;4094;49.948;11.574;2023-08-20T10:08:20;32.20;55.40
8103;DHT22;4094;49.948;11.574;2023-08-20T10:10:50;32.30;54.80
8103;DHT22;4094;49.948;11.574;2023-08-20T10:13:19;32.30;53.90
8103;DHT22;4094;49.948;11.574;2023-08-20T10:15:49;32.40;53.80
8103;DHT22;4094;49.948;11.574;2023-08-20T10:18:19;32.40;54.60
8103;DHT22;4094;49.948;11.574;2023-08-20T10:20:50;32.40;55.00
8103;DHT22;4094;49.948;11.574;2023-08-20T10:23:21;32.50;54.60
8103;DHT22;4094;49.948;11.574;2023-08-20T10:25:53;32.40;54.20
8103;DHT22;4094;49.948;11.574;2023-08-20T10:28:24;32.40;53.80
8103;DHT22;4094;49.948;11.574;2023-08-20T10:31:06;32.40;54.20
8103;DHT22;4094;49.948;11.574;2023-08-20T10:33:37;32.40;54.40
8103;DHT22;4094;49.948;11.574;2023-08-20T10:36:12;32.40;53.80
8103;DHT22;4094;49.948;11.574;2023-08-20T10:38:44;32.40;53.80
8103;DHT22;4094;49.948;11.574;2023-08-20T10:41:15;32.40;53.10
8103;DHT22;4094;49.948;11.574;2023-08-20T10:43:47;32.40;54.20
8103;DHT22;4094;49.948;11.574;2023-08-20T10:46:17;32.50;54.10
8103;DHT22;4094;49.948;11.574;2023-08-20T10:48:48;32.50;54.70
8103;DHT22;4094;49.948;11.574;2023-08-20T10:51:19;32.60;54.50
8103;DHT22;4094;49.948;11.574;2023-08-20T10:54:04;32.60;54.30
8103;DHT22;4094;49.948;11.574;2023-08-20T10:56:43;32.70;53.40
8103;DHT22;4094;49.948;11.574;2023-08-20T10:59:15;32.80;53.50
8103;DHT22;4094;49.948;11.574;2023-08-20T11:01:45;32.80;53.50
8103;DHT22;4094;49.948;11.574;2023-08-20T11:04:16;32.90;53.10
8103;DHT22;4094;49.948;11.574;2023-08-20T11:06:46;33.00;52.60
8103;DHT22;4094;49.948;11.574;2023-08-20T11:09:15;33.00;52.40
8103;DHT22;4094;49.948;11.574;2023-08-20T11:11:47;33.10;52.60
8103;DHT22;4094;49.948;11.574;2023-08-20T11:14:18;33.10;52.50
8103;DHT22;4094;49.948;11.574;2023-08-20T11:16:48;33.10;52.70
8103;DHT22;4094;49.948;11.574;2023-08-20T11:19:19;33.20;53.00
8103;DHT22;4094;49.948;11.574;2023-08-20T11:21:49;33.30;52.90
8103;DHT22;4094;49.948;11.574;2023-08-20T11:24:18;33.40;52.30
8103;DHT22;4094;49.948;11.574;2023-08-20T11:26:49;33.50;51.20
8103;DHT22;4094;49.948;11.574;2023-08-20T11:29:19;33.50;51.40
8103;DHT22;4094;49.948;11.574;2023-08-20T11:31:50;33.50;51.50
8103;DHT22;4094;49.948;11.574;2023-08-20T11:34:19;33.70;51.00
8103;DHT22;4094;49.948;11.574;2023-08-20T11:36:49;33.70;51.70
8103;DHT22;4094;49.948;11.574;2023-08-20T11:39:20;33.70;51.80
8103;DHT22;4094;49.948;11.574;2023-08-20T11:41:50;33.70;50.90
8103;DHT22;4094;49.948;11.574;2023-08-20T11:44:21;33.80;49.70
8103;DHT22;4094;49.948;11.574;2023-08-20T11:46:50;33.70;50.40
8103;DHT22;4094;49.948;11.574;2023-08-20T11:49:27;33.80;50.10
8103;DHT22;4094;49.948;11.574;2023-08-20T11:51:57;33.70;50.30
8103;DHT22;4094;49.948;11.574;2023-08-20T11:54:27;33.70;50.60
8103;DHT22;4094;49.948;11.574;2023-08-20T11:57:02;33.70;50.00
8103;DHT22;4094;49.948;11.574;2023-08-20T11:59:32;33.70;49.90
8103;DHT22;4094;49.948;11.574;2023-08-20T12:02:02;33.70;50.90
8103;DHT22;4094;49.948;11.574;2023-08-20T12:04:32;33.80;50.90
8103;DHT22;4094;49.948;11.574;2023-08-20T12:07:03;33.90;50.90
8103;DHT22;4094;49.948;11.574;2023-08-20T12:09:33;33.90;50.50
8103;DHT22;4094;49.948;11.574;2023-08-20T12:12:06;34.00;50.00
8103;DHT22;4094;49.948;11.574;2023-08-20T12:14:35;34.10;50.60
8103;DHT22;4094;49.948;11.574;2023-08-20T12:17:05;34.20;49.70
8103;DHT22;4094;49.948;11.574;2023-08-20T12:19:34;34.30;49.80
8103;DHT22;4094;49.948;11.574;2023-08-20T12:22:03;34.40;50.40
8103;DHT22;4094;49.948;11.574;2023-08-20T12:24:32;34.50;48.00
8103;DHT22;4094;49.948;11.574;2023-08-20T12:27:01;34.60;49.30
8103;DHT22;4094;49.948;11.574;2023-08-20T12:29:32;34.70;48.90
8103;DHT22;4094;49.948;11.574;2023-08-20T12:32:02;34.90;47.70
8103;DHT22;4094;49.948;11.574;2023-08-20T12:34:34;34.90;47.80
8103;DHT22;4094;49.948;11.574;2023-08-20T12:37:04;35.00;49.20
8103;DHT22;4094;49.948;11.574;2023-08-20T12:39:33;35.10;46.80
8103;DHT22;4094;49.948;11.574;2023-08-20T12:42:02;35.20;46.70
8103;DHT22;4094;49.948;11.574;2023-08-20T12:44:36;35.30;47.50
8103;DHT22;4094;49.948;11.574;2023-08-20T12:47:05;35.30;47.40
8103;DHT22;4094;49.948;11.574;2023-08-20T12:49:34;35.40;47.40
8103;DHT22;4094;49.948;11.574;2023-08-20T12:52:03;35.50;47.60
8103;DHT22;4094;49.948;11.574;2023-08-20T12:54:33;35.60;48.00
8103;DHT22;4094;49.948;11.574;2023-08-20T12:57:02;35.60;46.70
8103;DHT22;4094;49.948;11.574;2023-08-20T12:59:33;35.70;47.00
8103;DHT22;4094;49.948;11.574;2023-08-20T13:02:02;35.80;46.70
8103;DHT22;4094;49.948;11.574;2023-08-20T13:04:32;35.90;46.30
8103;DHT22;4094;49.948;11.574;2023-08-20T13:07:01;36.00;47.10
8103;DHT22;4094;49.948;11.574;2023-08-20T13:09:31;36.10;46.20
8103;DHT22;4094;49.948;11.574;2023-08-20T13:12:01;36.20;45.90
8103;DHT22;4094;49.948;11.574;2023-08-20T13:14:33;36.20;44.50
8103;DHT22;4094;49.948;11.574;2023-08-20T13:17:03;36.30;44.50
8103;DHT22;4094;49.948;11.574;2023-08-20T13:19:32;36.30;45.20
8103;DHT22;4094;49.948;11.574;2023-08-20T13:22:01;36.30;44.70
8103;DHT22;4094;49.948;11.574;2023-08-20T13:24:30;36.30;43.80
8103;DHT22;4094;49.948;11.574;2023-08-20T13:26:59;36.20;42.50
8103;DHT22;4094;49.948;11.574;2023-08-20T13:29:29;36.20;43.50
8103;DHT22;4094;49.948;11.574;2023-08-20T13:31:59;36.20;44.00
8103;DHT22;4094;49.948;11.574;2023-08-20T13:34:28;36.20;44.30
8103;DHT22;4094;49.948;11.574;2023-08-20T13:36:58;36.20;44.60
8103;DHT22;4094;49.948;11.574;2023-08-20T13:39:27;36.20;44.50
8103;DHT22;4094;49.948;11.574;2023-08-20T13:41:56;36.20;44.30
8103;DHT22;4094;49.948;11.574;2023-08-20T13:44:25;36.30;45.50
8103;DHT22;4094;49.948;11.574;2023-08-20T13:46:55;36.30;44.20
8103;DHT22;4094;49.948;11.574;2023-08-20T13:49:25;36.30;43.60
8103;DHT22;4094;49.948;11.574;2023-08-20T13:51:54;36.30;43.20
8103;DHT22;4094;49.948;11.574;2023-08-20T13:54:24;36.30;44.60
8103;DHT22;4094;49.948;11.574;2023-08-20T13:56:52;36.30;44.50
8103;DHT22;4094;49.948;11.574;2023-08-20T13:59:22;36.30;43.60
8103;DHT22;4094;49.948;11.574;2023-08-20T14:01:51;36.30;44.70
8103;DHT22;4094;49.948;11.574;2023-08-20T14:04:21;36.30;44.20
8103;DHT22;4094;49.948;11.574;2023-08-20T14:06:51;36.30;43.30
8103;DHT22;4094;49.948;11.574;2023-08-20T14:09:20;36.30;43.30
8103;DHT22;4094;49.948;11.574;2023-08-20T14:11:50;36.30;43.50
8103;DHT22;4094;49.948;11.574;2023-08-20T14:14:19;36.30;44.20
8103;DHT22;4094;49.948;11.574;2023-08-20T14:16:48;36.30;44.10
8103;DHT22;4094;49.948;11.574;2023-08-20T14:19:17;36.30;43.80
8103;DHT22;4094;49.948;11.574;2023-08-20T14:21:46;36.30;43.70
8103;DHT22;4094;49.948;11.574;2023-08-20T14:24:17;36.30;43.50
8103;DHT22;4094;49.948;11.574;2023-08-20T14:26:46;36.30;44.10
8103;DHT22;4094;49.948;11.574;2023-08-20T14:29:15;36.30;43.50
8103;DHT22;4094;49.948;11.574;2023-08-20T14:31:44;36.30;43.10
8103;DHT22;4094;49.948;11.574;2023-08-20T14:34:13;36.30;43.10
8103;DHT22;4094;49.948;11.574;2023-08-20T14:36:42;36.30;43.10
8103;DHT22;4094;49.948;11.574;2023-08-20T14:39:11;36.20;43.30
8103;DHT22;4094;49.948;11.574;2023-08-20T14:41:42;36.10;43.40
8103;DHT22;4094;49.948;11.574;2023-08-20T14:44:11;36.10;43.00
8103;DHT22;4094;49.948;11.574;2023-08-20T14:46:41;36.10;43.30
8103;DHT22;4094;49.948;11.574;2023-08-20T14:49:10;36.00;43.90
8103;DHT22;4094;49.948;11.574;2023-08-20T14:51:39;36.00;43.50
8103;DHT22;4094;49.948;11.574;2023-08-20T14:54:08;35.90;43.90
8103;DHT22;4094;49.948;11.574;2023-08-20T14:56:37;35.90;43.80
8103;DHT22;4094;49.948;11.574;2023-08-20T14:59:07;35.80;44.10
8103;DHT22;4094;49.948;11.574;2023-08-20T15:01:37;35.80;44.20
8103;DHT22;4094;49.948;11.574;2023-08-20T15:04:06;35.70;43.90
8103;DHT22;4094;49.948;11.574;2023-08-20T15:06:51;35.60;43.80
8103;DHT22;4094;49.948;11.574;2023-08-20T15:09:20;35.50;44.20
8103;DHT22;4094;49.948;11.574;2023-08-20T15:11:49;35.50;44.70
8103;DHT22;4094;49.948;11.574;2023-08-20T15:14:21;35.40;44.60
8103;DHT22;4094;49.948;11.574;2023-08-20T15:16:50;35.40;45.00
8103;DHT22;4094;49.948;11.574;2023-08-20T15:19:20;35.30;45.40
8103;DHT22;4094;49.948;11.574;2023-08-20T15:21:49;35.30;44.90
8103;DHT22;4094;49.948;11.574;2023-08-20T15:24:18;35.20;44.80
8103;DHT22;4094;49.948;11.574;2023-08-20T15:26:47;35.10;44.70
8103;DHT22;4094;49.948;11.574;2023-08-20T15:29:16;35.10;45.00
8103;DHT22;4094;49.948;11.574;2023-08-20T15:31:47;35.10;45.40
8103;DHT22;4094;49.948;11.574;2023-08-20T15:34:19;35.00;45.40
8103;DHT22;4094;49.948;11.574;2023-08-20T15:36:49;35.00;45.00
8103;DHT22;4094;49.948;11.574;2023-08-20T15:39:18;34.90;45.30
8103;DHT22;4094;49.948;11.574;2023-08-20T15:41:49;34.90;45.40
8103;DHT22;4094;49.948;11.574;2023-08-20T15:44:18;34.80;45.50
8103;DHT22;4094;49.948;11.574;2023-08-20T15:46:49;34.80;45.60
8103;DHT22;4094;49.948;11.574;2023-08-20T15:49:18;34.80;45.30
8103;DHT22;4094;49.948;11.574;2023-08-20T15:51:47;34.70;45.20
8103;DHT22;4094;49.948;11.574;2023-08-20T15:54:17;34.70;45.60
8103;DHT22;4094;49.948;11.574;2023-08-20T15:56:46;34.70;46.30
8103;DHT22;4094;49.948;11.574;2023-08-20T15:59:16;34.60;46.10
8103;DHT22;4094;49.948;11.574;2023-08-20T16:01:49;34.60;47.40
8103;DHT22;4094;49.948;11.574;2023-08-20T16:04:18;34.60;46.00
8103;DHT22;4094;49.948;11.574;2023-08-20T16:06:47;34.50;45.70